sensor_id;sensor_type;location;lat;lon;timestamp;temperature;humidity
60039;DHT22;45916;52.734;6.544;2022-12-18T00:00:47;-3.30;99.90
60039;DHT22;45916;52.734;6.544;2022-12-18T00:03:16;-3.30;99.90
60039;DHT22;45916;52.734;6.544;2022-12-18T00:05:52;-3.30;99.90
60039;DHT22;45916;52.734;6.544;2022-12-18T00:08:18;-3.30;99.90
60039;DHT22;45916;52.734;6.544;2022-12-18T00:10:45;-3.30;99.90
60039;DHT22;45916;52.734;6.544;2022-12-18T00:13:11;-3.30;99.90
60039;DHT22;45916;52.734;6.544;2022-12-18T00:15:38;-3.40;99.90
60039;DHT22;45916;52.734;6.544;2022-12-18T00:18:05;-3.40;99.90
60039;DHT22;45916;52.734;6.544;2022-12-18T00:20:35;-3.30;99.90
60039;DHT22;45916;52.734;6.544;2022-12-18T00:23:00;-3.30;99.90
60039;DHT22;45916;52.734;6.544;2022-12-18T00:25:26;-3.40;99.90
60039;DHT22;45916;52.734;6.544;2022-12-18T00:27:52;-3.40;99.90
60039;DHT22;45916;52.734;6.544;2022-12-18T00:30:18;-3.40;99.90
60039;DHT22;45916;52.734;6.544;2022-12-18T00:32:43;-3.40;99.90
60039;DHT22;45916;52.734;6.544;2022-12-18T00:35:09;-3.50;99.90
60039;DHT22;45916;52.734;6.544;2022-12-18T00:37:35;-3.50;99.90
60039;DHT22;45916;52.734;6.544;2022-12-18T00:40:01;-3.40;99.90
60039;DHT22;45916;52.734;6.544;2022-12-18T00:42:27;-3.40;99.90
60039;DHT22;45916;52.734;6.544;2022-12-18T00:45:11;-3.40;99.90
60039;DHT22;45916;52.734;6.544;2022-12-18T00:47:36;-3.40;99.90
60039;DHT22;45916;52.734;6.544;2022-12-18T00:50:02;-3.50;99.90
60039;DHT22;45916;52.734;6.544;2022-12-18T00:52:28;-3.60;99.90
60039;DHT22;45916;52.734;6.544;2022-12-18T00:54:53;-3.60;99.90
60039;DHT22;45916;52.734;6.544;2022-12-18T00:57:19;-3.70;99.90
60039;DHT22;45916;52.734;6.544;2022-12-18T00:59:45;-3.70;99.90
60039;DHT22;45916;52.734;6.544;2022-12-18T01:02:10;-3.70;99.90
60039;DHT22;45916;52.734;6.544;2022-12-18T01:04:36;-3.80;99.90
60039;DHT22;45916;52.734;6.544;2022-12-18T01:07:02;-3.80;99.90
60039;DHT22;45916;52.734;6.544;2022-12-18T01:09:27;-3.80;99.90
60039;DHT22;45916;52.734;6.544;2022-12-18T01:11:54;-3.90;99.90
60039;DHT22;45916;52.734;6.544;2022-12-18T01:14:19;-4.00;99.90
60039;DHT22;45916;52.734;6.544;2022-12-18T01:16:45;-4.10;99.90
60039;DHT22;45916;52.734;6.544;2022-12-18T01:19:11;-4.20;99.90
60039;DHT22;45916;52.734;6.544;2022-12-18T01:21:36;-4.20;99.90
60039;DHT22;45916;52.734;6.544;2022-12-18T01:24:02;-4.30;99.90
60039;DHT22;45916;52.734;6.544;2022-12-18T01:26:28;-4.30;99.90
60039;DHT22;45916;52.734;6.544;2022-12-18T01:28:56;-4.30;99.90
60039;DHT22;45916;52.734;6.544;2022-12-18T01:31:24;-4.40;99.90
60039;DHT22;45916;52.734;6.544;2022-12-18T01:33:51;-4.40;99.90
60039;DHT22;45916;52.734;6.544;2022-12-18T01:36:20;-4.40;99.90
60039;DHT22;45916;52.734;6.544;2022-12-18T01:38:46;-4.50;99.90
60039;DHT22;45916;52.734;6.544;2022-12-18T01:41:12;-4.50;99.90
60039;DHT22;45916;52.734;6.544;2022-12-18T01:46:12;-4.70;99.90
60039;DHT22;45916;52.734;6.544;2022-12-18T01:48:39;-4.80;99.90
60039;DHT22;45916;52.734;6.544;2022-12-18T01:51:06;-4.90;99.90
60039;DHT22;45916;52.734;6.544;2022-12-18T01:53:33;-5.00;99.90
60039;DHT22;45916;52.734;6.544;2022-12-18T01:55:59;-5.00;99.90
60039;DHT22;45916;52.734;6.544;2022-12-18T01:58:54;-5.00;99.90
60039;DHT22;45916;52.734;6.544;2022-12-18T02:01:22;-5.00;99.90
60039;DHT22;45916;52.734;6.544;2022-12-18T02:03:48;-4.90;99.90
60039;DHT22;45916;52.734;6.544;2022-12-18T02:09:08;-4.90;99.90
60039;DHT22;45916;52.734;6.544;2022-12-18T02:11:49;-5.00;99.90
60039;DHT22;45916;52.734;6.544;2022-12-18T02:25:25;-5.20;99.90
60039;DHT22;45916;52.734;6.544;2022-12-18T02:27:56;-5.20;99.90
60039;DHT22;45916;52.734;6.544;2022-12-18T02:30:27;-5.20;99.90
60039;DHT22;45916;52.734;6.544;2022-12-18T02:32:55;-5.30;99.90
60039;DHT22;45916;52.734;6.544;2022-12-18T02:35:27;-5.30;99.90
60039;DHT22;45916;52.734;6.544;2022-12-18T02:37:54;-5.30;99.90
60039;DHT22;45916;52.734;6.544;2022-12-18T02:40:22;-5.40;99.90
60039;DHT22;45916;52.734;6.544;2022-12-18T02:42:48;-5.50;99.90
60039;DHT22;45916;52.734;6.544;2022-12-18T02:45:14;-5.50;99.90
60039;DHT22;45916;52.734;6.544;2022-12-18T02:47:42;-5.50;99.90
60039;DHT22;45916;52.734;6.544;2022-12-18T02:50:30;-5.60;99.90
60039;DHT22;45916;52.734;6.544;2022-12-18T02:58:33;-5.70;99.90
60039;DHT22;45916;52.734;6.544;2022-12-18T03:03:41;-5.70;99.90
60039;DHT22;45916;52.734;6.544;2022-12-18T03:06:24;-5.80;99.90
60039;DHT22;45916;52.734;6.544;2022-12-18T03:09:06;-5.80;99.90
60039;DHT22;45916;52.734;6.544;2022-12-18T03:11:35;-5.80;99.90
60039;DHT22;45916;52.734;6.544;2022-12-18T03:14:22;-5.80;99.90
60039;DHT22;45916;52.734;6.544;2022-12-18T03:16:53;-5.80;99.90
60039;DHT22;45916;52.734;6.544;2022-12-18T03:19:22;-5.80;99.90
60039;DHT22;45916;52.734;6.544;2022-12-18T03:21:52;-5.80;99.90
60039;DHT22;45916;52.734;6.544;2022-12-18T03:24:19;-5.80;99.90
60039;DHT22;45916;52.734;6.544;2022-12-18T03:26:50;-5.80;99.90
60039;DHT22;45916;52.734;6.544;2022-12-18T03:29:33;-5.90;99.90
60039;DHT22;45916;52.734;6.544;2022-12-18T03:32:15;-5.90;99.90
60039;DHT22;45916;52.734;6.544;2022-12-18T03:34:44;-5.90;99.90
60039;DHT22;45916;52.734;6.544;2022-12-18T03:37:13;-6.00;99.90
60039;DHT22;45916;52.734;6.544;2022-12-18T03:39:38;-6.00;99.90
60039;DHT22;45916;52.734;6.544;2022-12-18T03:42:08;-6.00;99.90
60039;DHT22;45916;52.734;6.544;2022-12-18T03:47:41;-6.00;99.90
60039;DHT22;45916;52.734;6.544;2022-12-18T03:50:17;-6.10;99.90
60039;DHT22;45916;52.734;6.544;2022-12-18T03:52:52;-6.10;99.90
60039;DHT22;45916;52.734;6.544;2022-12-18T03:55:21;-6.10;99.90
60039;DHT22;45916;52.734;6.544;2022-12-18T03:57:48;-6.10;99.90
60039;DHT22;45916;52.734;6.544;2022-12-18T04:00:17;-6.20;99.90
60039;DHT22;45916;52.734;6.544;2022-12-18T04:02:48;-6.10;99.90
60039;DHT22;45916;52.734;6.544;2022-12-18T04:05:15;-6.10;99.90
60039;DHT22;45916;52.734;6.544;2022-12-18T04:07:43;-6.10;99.90
60039;DHT22;45916;52.734;6.544;2022-12-18T04:10:11;-6.10;99.90
60039;DHT22;45916;52.734;6.544;2022-12-18T04:12:38;-6.20;99.90
60039;DHT22;45916;52.734;6.544;2022-12-18T04:15:04;-6.20;99.90
60039;DHT22;45916;52.734;6.544;2022-12-18T04:17:30;-6.20;99.90
60039;DHT22;45916;52.734;6.544;2022-12-18T04:19:56;-6.20;99.90
60039;DHT22;45916;52.734;6.544;2022-12-18T04:22:21;-6.20;99.90
60039;DHT22;45916;52.734;6.544;2022-12-18T04:24:47;-6.20;99.90
60039;DHT22;45916;52.734;6.544;2022-12-18T04:27:13;-6.30;99.90
60039;DHT22;45916;52.734;6.544;2022-12-18T04:29:39;-6.40;99.90
60039;DHT22;45916;52.734;6.544;2022-12-18T04:32:05;-6.30;99.90
60039;DHT22;45916;52.734;6.544;2022-12-18T04:34:31;-6.30;99.90
60039;DHT22;45916;52.734;6.544;2022-12-18T04:36:56;-6.30;99.90
60039;DHT22;45916;52.734;6.544;2022-12-18T04:39:22;-6.40;99.90
60039;DHT22;45916;52.734;6.544;2022-12-18T04:41:48;-6.30;99.90
60039;DHT22;45916;52.734;6.544;2022-12-18T04:44:13;-6.30;99.90
60039;DHT22;45916;52.734;6.544;2022-12-18T04:46:39;-6.40;99.90
60039;DHT22;45916;52.734;6.544;2022-12-18T04:49:05;-6.40;99.90
60039;DHT22;45916;52.734;6.544;2022-12-18T04:51:30;-6.40;99.90
60039;DHT22;45916;52.734;6.544;2022-12-18T04:53:56;-6.40;99.90
60039;DHT22;45916;52.734;6.544;2022-12-18T04:56:22;-6.40;99.90
60039;DHT22;45916;52.734;6.544;2022-12-18T04:58:48;-6.30;99.90
60039;DHT22;45916;52.734;6.544;2022-12-18T05:01:16;-6.30;99.90
60039;DHT22;45916;52.734;6.544;2022-12-18T05:03:42;-6.30;99.90
60039;DHT22;45916;52.734;6.544;2022-12-18T05:06:08;-6.30;99.90
60039;DHT22;45916;52.734;6.544;2022-12-18T05:08:34;-6.30;99.90
60039;DHT22;45916;52.734;6.544;2022-12-18T05:11:02;-6.20;99.90
60039;DHT22;45916;52.734;6.544;2022-12-18T05:13:28;-6.30;99.90
60039;DHT22;45916;52.734;6.544;2022-12-18T05:15:55;-6.30;99.90
60039;DHT22;45916;52.734;6.544;2022-12-18T05:18:21;-6.30;99.90
60039;DHT22;45916;52.734;6.544;2022-12-18T05:20:47;-6.30;99.90
60039;DHT22;45916;52.734;6.544;2022-12-18T05:23:13;-6.50;99.90
60039;DHT22;45916;52.734;6.544;2022-12-18T05:25:38;-6.50;99.90
60039;DHT22;45916;52.734;6.544;2022-12-18T05:28:04;-6.50;99.90
60039;DHT22;45916;52.734;6.544;2022-12-18T05:30:29;-6.50;99.90
60039;DHT22;45916;52.734;6.544;2022-12-18T05:32:55;-6.50;99.90
60039;DHT22;45916;52.734;6.544;2022-12-18T05:35:21;-6.40;99.90
60039;DHT22;45916;52.734;6.544;2022-12-18T05:37:46;-6.40;99.90
60039;DHT22;45916;52.734;6.544;2022-12-18T05:40:12;-6.40;99.90
60039;DHT22;45916;52.734;6.544;2022-12-18T05:42:38;-6.40;99.90
60039;DHT22;45916;52.734;6.544;2022-12-18T05:45:04;-6.40;99.90
60039;DHT22;45916;52.734;6.544;2022-12-18T05:47:30;-6.30;99.90
60039;DHT22;45916;52.734;6.544;2022-12-18T05:49:56;-6.30;99.90
60039;DHT22;45916;52.734;6.544;2022-12-18T05:52:22;-6.30;99.90
60039;DHT22;45916;52.734;6.544;2022-12-18T05:54:48;-6.20;99.90
60039;DHT22;45916;52.734;6.544;2022-12-18T05:57:13;-6.20;99.90
60039;DHT22;45916;52.734;6.544;2022-12-18T05:59:39;-6.30;99.90
60039;DHT22;45916;52.734;6.544;2022-12-18T06:02:05;-6.30;99.90
60039;DHT22;45916;52.734;6.544;2022-12-18T06:04:30;-6.40;99.90
60039;DHT22;45916;52.734;6.544;2022-12-18T06:06:56;-6.40;99.90
60039;DHT22;45916;52.734;6.544;2022-12-18T06:09:23;-6.40;99.90
60039;DHT22;45916;52.734;6.544;2022-12-18T06:11:49;-6.40;99.90
60039;DHT22;45916;52.734;6.544;2022-12-18T06:14:16;-6.40;99.90
60039;DHT22;45916;52.734;6.544;2022-12-18T06:16:42;-6.40;99.90
60039;DHT22;45916;52.734;6.544;2022-12-18T06:19:14;-6.50;99.90
60039;DHT22;45916;52.734;6.544;2022-12-18T06:21:40;-6.50;99.90
60039;DHT22;45916;52.734;6.544;2022-12-18T06:24:06;-6.60;99.90
60039;DHT22;45916;52.734;6.544;2022-12-18T06:26:32;-6.60;99.90
60039;DHT22;45916;52.734;6.544;2022-12-18T06:28:57;-6.60;99.90
60039;DHT22;45916;52.734;6.544;2022-12-18T06:31:23;-6.60;99.90
60039;DHT22;45916;52.734;6.544;2022-12-18T06:33:49;-6.60;99.90
60039;DHT22;45916;52.734;6.544;2022-12-18T06:36:15;-6.60;99.90
60039;DHT22;45916;52.734;6.544;2022-12-18T06:38:43;-6.60;99.90
60039;DHT22;45916;52.734;6.544;2022-12-18T06:41:10;-6.70;99.90
60039;DHT22;45916;52.734;6.544;2022-12-18T06:43:37;-6.70;99.90
60039;DHT22;45916;52.734;6.544;2022-12-18T06:46:03;-6.80;99.90
60039;DHT22;45916;52.734;6.544;2022-12-18T06:48:29;-6.80;99.90
60039;DHT22;45916;52.734;6.544;2022-12-18T06:50:55;-6.80;99.90
60039;DHT22;45916;52.734;6.544;2022-12-18T06:53:21;-6.80;99.90
60039;DHT22;45916;52.734;6.544;2022-12-18T06:55:47;-6.80;99.90
60039;DHT22;45916;52.734;6.544;2022-12-18T06:58:12;-6.70;99.90
60039;DHT22;45916;52.734;6.544;2022-12-18T07:00:38;-6.70;99.90
60039;DHT22;45916;52.734;6.544;2022-12-18T07:03:04;-6.70;99.90
60039;DHT22;45916;52.734;6.544;2022-12-18T07:05:30;-6.70;99.90
60039;DHT22;45916;52.734;6.544;2022-12-18T07:07:55;-6.70;99.90
60039;DHT22;45916;52.734;6.544;2022-12-18T07:10:21;-6.70;99.90
60039;DHT22;45916;52.734;6.544;2022-12-18T07:12:47;-6.80;99.90
60039;DHT22;45916;52.734;6.544;2022-12-18T07:15:12;-6.80;99.90
60039;DHT22;45916;52.734;6.544;2022-12-18T07:17:38;-6.90;99.90
60039;DHT22;45916;52.734;6.544;2022-12-18T07:20:04;-7.00;99.90
60039;DHT22;45916;52.734;6.544;2022-12-18T07:22:30;-7.00;99.90
60039;DHT22;45916;52.734;6.544;2022-12-18T07:24:56;-7.00;99.90
60039;DHT22;45916;52.734;6.544;2022-12-18T07:27:22;-7.10;99.90
60039;DHT22;45916;52.734;6.544;2022-12-18T07:29:48;-7.10;99.90
60039;DHT22;45916;52.734;6.544;2022-12-18T07:32:14;-7.10;99.90
60039;DHT22;45916;52.734;6.544;2022-12-18T07:34:39;-7.10;99.90
60039;DHT22;45916;52.734;6.544;2022-12-18T07:37:05;-7.10;99.90
60039;DHT22;45916;52.734;6.544;2022-12-18T07:39:31;-7.10;99.90
60039;DHT22;45916;52.734;6.544;2022-12-18T07:41:56;-7.10;99.90
60039;DHT22;45916;52.734;6.544;2022-12-18T07:44:40;-7.10;99.90
60039;DHT22;45916;52.734;6.544;2022-12-18T07:47:06;-7.10;99.90
60039;DHT22;45916;52.734;6.544;2022-12-18T07:49:32;-7.10;99.90
60039;DHT22;45916;52.734;6.544;2022-12-18T07:51:58;-7.10;99.90
60039;DHT22;45916;52.734;6.544;2022-12-18T07:54:24;-7.00;99.90
60039;DHT22;45916;52.734;6.544;2022-12-18T07:56:51;-6.90;99.90
60039;DHT22;45916;52.734;6.544;2022-12-18T07:59:17;-6.90;99.90
60039;DHT22;45916;52.734;6.544;2022-12-18T08:01:43;-6.90;99.90
60039;DHT22;45916;52.734;6.544;2022-12-18T08:04:09;-6.80;99.90
60039;DHT22;45916;52.734;6.544;2022-12-18T08:06:34;-6.70;99.90
60039;DHT22;45916;52.734;6.544;2022-12-18T08:09:00;-6.70;99.90
60039;DHT22;45916;52.734;6.544;2022-12-18T08:11:27;-6.50;99.90
60039;DHT22;45916;52.734;6.544;2022-12-18T08:13:53;-6.40;99.90
60039;DHT22;45916;52.734;6.544;2022-12-18T08:16:20;-6.30;99.90
60039;DHT22;45916;52.734;6.544;2022-12-18T08:18:46;-6.20;99.90
60039;DHT22;45916;52.734;6.544;2022-12-18T08:21:16;-6.00;99.90
60039;DHT22;45916;52.734;6.544;2022-12-18T08:23:43;-5.90;99.90
60039;DHT22;45916;52.734;6.544;2022-12-18T08:26:13;-5.80;99.90
60039;DHT22;45916;52.734;6.544;2022-12-18T08:28:39;-5.60;99.90
60039;DHT22;45916;52.734;6.544;2022-12-18T08:31:06;-5.40;99.90
60039;DHT22;45916;52.734;6.544;2022-12-18T08:33:32;-5.20;99.90
60039;DHT22;45916;52.734;6.544;2022-12-18T08:35:59;-4.80;99.90
60039;DHT22;45916;52.734;6.544;2022-12-18T08:38:25;-4.40;99.90
60039;DHT22;45916;52.734;6.544;2022-12-18T08:41:01;-4.20;99.90
60039;DHT22;45916;52.734;6.544;2022-12-18T08:43:27;-4.10;99.90
60039;DHT22;45916;52.734;6.544;2022-12-18T08:46:12;-4.00;99.90
60039;DHT22;45916;52.734;6.544;2022-12-18T08:48:40;-3.80;99.90
60039;DHT22;45916;52.734;6.544;2022-12-18T08:51:06;-3.50;99.90
60039;DHT22;45916;52.734;6.544;2022-12-18T08:53:32;-3.10;99.90
60039;DHT22;45916;52.734;6.544;2022-12-18T08:55:57;-2.70;99.90
60039;DHT22;45916;52.734;6.544;2022-12-18T08:58:23;-2.30;99.90
60039;DHT22;45916;52.734;6.544;2022-12-18T09:00:49;-2.10;99.90
60039;DHT22;45916;52.734;6.544;2022-12-18T09:03:18;-1.50;99.90
60039;DHT22;45916;52.734;6.544;2022-12-18T09:05:48;-0.80;99.90
60039;DHT22;45916;52.734;6.544;2022-12-18T09:08:14;-0.40;99.90
60039;DHT22;45916;52.734;6.544;2022-12-18T09:10:47;-0.30;99.90
60039;DHT22;45916;52.734;6.544;2022-12-18T09:13:14;-0.30;99.90
60039;DHT22;45916;52.734;6.544;2022-12-18T09:15:46;-0.30;99.90
60039;DHT22;45916;52.734;6.544;2022-12-18T09:18:13;-0.50;99.90
60039;DHT22;45916;52.734;6.544;2022-12-18T09:20:40;-0.70;99.90
60039;DHT22;45916;52.734;6.544;2022-12-18T09:23:06;-0.70;99.90
60039;DHT22;45916;52.734;6.544;2022-12-18T09:25:33;-0.30;99.90
60039;DHT22;45916;52.734;6.544;2022-12-18T09:28:05;0.00;99.90
60039;DHT22;45916;52.734;6.544;2022-12-18T09:30:32;0.30;99.90
60039;DHT22;45916;52.734;6.544;2022-12-18T09:32:59;0.80;99.90
60039;DHT22;45916;52.734;6.544;2022-12-18T09:35:25;1.30;99.90
60039;DHT22;45916;52.734;6.544;2022-12-18T09:37:53;1.20;99.90
60039;DHT22;45916;52.734;6.544;2022-12-18T09:40:21;0.90;99.90
60039;DHT22;45916;52.734;6.544;2022-12-18T09:42:49;0.70;99.90
60039;DHT22;45916;52.734;6.544;2022-12-18T09:45:17;0.40;99.90
60039;DHT22;45916;52.734;6.544;2022-12-18T09:47:45;-0.20;99.90
60039;DHT22;45916;52.734;6.544;2022-12-18T09:50:34;-0.20;99.90
60039;DHT22;45916;52.734;6.544;2022-12-18T09:53:10;0.00;99.90
60039;DHT22;45916;52.734;6.544;2022-12-18T09:55:45;0.40;99.90
60039;DHT22;45916;52.734;6.544;2022-12-18T09:58:20;0.60;99.90
60039;DHT22;45916;52.734;6.544;2022-12-18T10:00:54;0.50;99.90
60039;DHT22;45916;52.734;6.544;2022-12-18T10:03:21;0.40;99.90
60039;DHT22;45916;52.734;6.544;2022-12-18T10:06:14;0.10;99.90
60039;DHT22;45916;52.734;6.544;2022-12-18T10:14:10;0.40;99.90
60039;DHT22;45916;52.734;6.544;2022-12-18T10:19:40;-0.40;99.90
60039;DHT22;45916;52.734;6.544;2022-12-18T10:22:39;-0.70;99.90
60039;DHT22;45916;52.734;6.544;2022-12-18T10:25:39;-1.10;99.90
60039;DHT22;45916;52.734;6.544;2022-12-18T10:28:10;-1.30;99.90
60039;DHT22;45916;52.734;6.544;2022-12-18T10:30:39;-1.40;99.90
60039;DHT22;45916;52.734;6.544;2022-12-18T10:33:04;-1.50;99.90
60039;DHT22;45916;52.734;6.544;2022-12-18T10:35:30;-1.60;99.90
60039;DHT22;45916;52.734;6.544;2022-12-18T10:38:23;-1.70;99.90
60039;DHT22;45916;52.734;6.544;2022-12-18T10:41:06;-1.70;99.90
60039;DHT22;45916;52.734;6.544;2022-12-18T10:43:38;-1.70;99.90
60039;DHT22;45916;52.734;6.544;2022-12-18T10:51:32;-1.80;99.90
60039;DHT22;45916;52.734;6.544;2022-12-18T10:54:23;-1.90;99.90
60039;DHT22;45916;52.734;6.544;2022-12-18T10:56:49;-1.80;99.90
60039;DHT22;45916;52.734;6.544;2022-12-18T10:59:16;-1.80;99.90
60039;DHT22;45916;52.734;6.544;2022-12-18T11:01:58;-1.80;99.90
60039;DHT22;45916;52.734;6.544;2022-12-18T11:04:29;-1.80;99.90
60039;DHT22;45916;52.734;6.544;2022-12-18T11:07:01;-1.80;99.90
60039;DHT22;45916;52.734;6.544;2022-12-18T11:09:34;-1.80;99.90
60039;DHT22;45916;52.734;6.544;2022-12-18T11:12:15;-1.80;99.90
60039;DHT22;45916;52.734;6.544;2022-12-18T11:14:49;-1.80;99.90
60039;DHT22;45916;52.734;6.544;2022-12-18T11:17:23;-1.80;99.90
60039;DHT22;45916;52.734;6.544;2022-12-18T11:19:58;-1.70;99.90
60039;DHT22;45916;52.734;6.544;2022-12-18T11:22:27;-1.70;99.90
60039;DHT22;45916;52.734;6.544;2022-12-18T11:24:55;-1.70;99.90
60039;DHT22;45916;52.734;6.544;2022-12-18T11:27:21;-1.60;99.90
60039;DHT22;45916;52.734;6.544;2022-12-18T11:29:50;-1.60;99.90
60039;DHT22;45916;52.734;6.544;2022-12-18T11:35:16;-1.40;99.90
60039;DHT22;45916;52.734;6.544;2022-12-18T11:37:49;-1.40;99.90
60039;DHT22;45916;52.734;6.544;2022-12-18T11:40:27;-1.40;99.90
60039;DHT22;45916;52.734;6.544;2022-12-18T11:42:55;-1.40;99.90
60039;DHT22;45916;52.734;6.544;2022-12-18T11:45:28;-1.30;99.90
60039;DHT22;45916;52.734;6.544;2022-12-18T11:48:05;-1.30;99.90
60039;DHT22;45916;52.734;6.544;2022-12-18T11:53:02;-1.30;99.90
60039;DHT22;45916;52.734;6.544;2022-12-18T11:58:42;-1.30;99.90
60039;DHT22;45916;52.734;6.544;2022-12-18T12:06:54;-1.10;99.90
60039;DHT22;45916;52.734;6.544;2022-12-18T12:09:33;-1.10;99.90
60039;DHT22;45916;52.734;6.544;2022-12-18T12:15:04;-1.00;99.90
60039;DHT22;45916;52.734;6.544;2022-12-18T12:17:42;-1.00;99.90
60039;DHT22;45916;52.734;6.544;2022-12-18T12:34:51;-0.90;99.90
60039;DHT22;45916;52.734;6.544;2022-12-18T12:37:22;-0.90;99.90
60039;DHT22;45916;52.734;6.544;2022-12-18T12:39:51;-0.80;99.90
60039;DHT22;45916;52.734;6.544;2022-12-18T12:42:29;-0.80;99.90
60039;DHT22;45916;52.734;6.544;2022-12-18T12:45:28;-0.80;99.90
60039;DHT22;45916;52.734;6.544;2022-12-18T12:47:56;-0.60;99.90
60039;DHT22;45916;52.734;6.544;2022-12-18T12:50:23;-0.60;99.90
60039;DHT22;45916;52.734;6.544;2022-12-18T12:52:52;-0.60;99.90
60039;DHT22;45916;52.734;6.544;2022-12-18T12:55:25;-0.60;99.90
60039;DHT22;45916;52.734;6.544;2022-12-18T13:00:43;-0.60;99.90
60039;DHT22;45916;52.734;6.544;2022-12-18T13:03:29;-0.60;99.90
60039;DHT22;45916;52.734;6.544;2022-12-18T13:06:12;-0.50;99.90
60039;DHT22;45916;52.734;6.544;2022-12-18T13:09:00;-0.50;99.90
60039;DHT22;45916;52.734;6.544;2022-12-18T13:11:42;-0.50;99.90
60039;DHT22;45916;52.734;6.544;2022-12-18T13:14:35;-0.50;99.90
60039;DHT22;45916;52.734;6.544;2022-12-18T13:17:34;-0.40;99.90
60039;DHT22;45916;52.734;6.544;2022-12-18T13:20:07;-0.40;99.90
60039;DHT22;45916;52.734;6.544;2022-12-18T13:22:37;-0.40;99.90
60039;DHT22;45916;52.734;6.544;2022-12-18T13:25:41;-0.40;99.90
60039;DHT22;45916;52.734;6.544;2022-12-18T13:28:09;-0.30;99.90
60039;DHT22;45916;52.734;6.544;2022-12-18T13:30:56;-0.40;99.90
60039;DHT22;45916;52.734;6.544;2022-12-18T13:35:52;-0.30;99.90
60039;DHT22;45916;52.734;6.544;2022-12-18T13:40:55;-0.30;99.90
60039;DHT22;45916;52.734;6.544;2022-12-18T13:45:59;-0.30;99.90
60039;DHT22;45916;52.734;6.544;2022-12-18T13:48:27;-0.40;99.90
60039;DHT22;45916;52.734;6.544;2022-12-18T13:51:09;-0.40;99.90
60039;DHT22;45916;52.734;6.544;2022-12-18T13:53:43;-0.40;99.90
60039;DHT22;45916;52.734;6.544;2022-12-18T13:56:15;-0.40;99.90
60039;DHT22;45916;52.734;6.544;2022-12-18T13:58:41;-0.40;99.90
60039;DHT22;45916;52.734;6.544;2022-12-18T14:01:22;-0.40;99.90
60039;DHT22;45916;52.734;6.544;2022-12-18T14:03:48;-0.40;99.90
60039;DHT22;45916;52.734;6.544;2022-12-18T14:06:14;-0.40;99.90
60039;DHT22;45916;52.734;6.544;2022-12-18T14:08:43;-0.50;99.90
60039;DHT22;45916;52.734;6.544;2022-12-18T14:11:22;-0.40;99.90
60039;DHT22;45916;52.734;6.544;2022-12-18T14:13:48;-0.50;99.90
60039;DHT22;45916;52.734;6.544;2022-12-18T14:16:15;-0.50;99.90
60039;DHT22;45916;52.734;6.544;2022-12-18T14:18:51;-0.50;99.90
60039;DHT22;45916;52.734;6.544;2022-12-18T14:21:28;-0.50;99.90
60039;DHT22;45916;52.734;6.544;2022-12-18T14:24:19;-0.50;99.90
60039;DHT22;45916;52.734;6.544;2022-12-18T14:26:45;-0.60;99.90
60039;DHT22;45916;52.734;6.544;2022-12-18T14:29:26;-0.50;99.90
60039;DHT22;45916;52.734;6.544;2022-12-18T14:32:11;-0.60;99.90
60039;DHT22;45916;52.734;6.544;2022-12-18T14:34:52;-0.60;99.90
60039;DHT22;45916;52.734;6.544;2022-12-18T14:37:25;-0.60;99.90
60039;DHT22;45916;52.734;6.544;2022-12-18T14:39:59;-0.70;99.90
60039;DHT22;45916;52.734;6.544;2022-12-18T14:42:26;-0.70;99.90
60039;DHT22;45916;52.734;6.544;2022-12-18T14:47:57;-0.70;99.90
60039;DHT22;45916;52.734;6.544;2022-12-18T14:50:23;-0.80;99.90
60039;DHT22;45916;52.734;6.544;2022-12-18T14:52:49;-0.70;99.90
60039;DHT22;45916;52.734;6.544;2022-12-18T14:55:17;-0.80;99.90
60039;DHT22;45916;52.734;6.544;2022-12-18T14:57:43;-0.80;99.90
60039;DHT22;45916;52.734;6.544;2022-12-18T15:00:21;-0.80;99.90
60039;DHT22;45916;52.734;6.544;2022-12-18T15:02:53;-0.80;99.90
60039;DHT22;45916;52.734;6.544;2022-12-18T15:05:25;-0.80;99.90
60039;DHT22;45916;52.734;6.544;2022-12-18T15:07:53;-0.90;99.90
60039;DHT22;45916;52.734;6.544;2022-12-18T15:13:06;-0.90;99.90
60039;DHT22;45916;52.734;6.544;2022-12-18T15:23:23;-0.90;99.90
60039;DHT22;45916;52.734;6.544;2022-12-18T15:26:02;-0.90;99.90
60039;DHT22;45916;52.734;6.544;2022-12-18T15:36:23;-1.00;99.90
60039;DHT22;45916;52.734;6.544;2022-12-18T15:38:50;-1.00;99.90
60039;DHT22;45916;52.734;6.544;2022-12-18T15:41:19;-1.00;99.90
60039;DHT22;45916;52.734;6.544;2022-12-18T15:43:46;-1.00;99.90
60039;DHT22;45916;52.734;6.544;2022-12-18T15:48:52;-1.00;99.90
60039;DHT22;45916;52.734;6.544;2022-12-18T15:51:26;-1.00;99.90
60039;DHT22;45916;52.734;6.544;2022-12-18T15:53:54;-1.00;99.90
60039;DHT22;45916;52.734;6.544;2022-12-18T15:56:21;-1.00;99.90
60039;DHT22;45916;52.734;6.544;2022-12-18T15:59:15;-1.00;99.90
60039;DHT22;45916;52.734;6.544;2022-12-18T16:01:42;-1.00;99.90
60039;DHT22;45916;52.734;6.544;2022-12-18T16:04:13;-1.00;99.90
60039;DHT22;45916;52.734;6.544;2022-12-18T16:06:39;-1.00;99.90
60039;DHT22;45916;52.734;6.544;2022-12-18T16:09:05;-1.00;99.90
60039;DHT22;45916;52.734;6.544;2022-12-18T16:11:33;-1.00;99.90
60039;DHT22;45916;52.734;6.544;2022-12-18T16:14:27;-1.00;99.90
60039;DHT22;45916;52.734;6.544;2022-12-18T16:16:58;-1.00;99.90
60039;DHT22;45916;52.734;6.544;2022-12-18T16:19:24;-1.00;99.90
60039;DHT22;45916;52.734;6.544;2022-12-18T16:21:52;-1.00;99.90
60039;DHT22;45916;52.734;6.544;2022-12-18T16:24:20;-1.10;99.90
60039;DHT22;45916;52.734;6.544;2022-12-18T16:26:50;-1.00;99.90
60039;DHT22;45916;52.734;6.544;2022-12-18T16:29:18;-1.00;99.90
60039;DHT22;45916;52.734;6.544;2022-12-18T16:31:43;-0.90;99.90
60039;DHT22;45916;52.734;6.544;2022-12-18T16:36:36;-0.90;99.90
60039;DHT22;45916;52.734;6.544;2022-12-18T16:39:02;-1.00;99.90
60039;DHT22;45916;52.734;6.544;2022-12-18T16:41:28;-0.90;99.90
60039;DHT22;45916;52.734;6.544;2022-12-18T16:43:57;-0.90;99.90
60039;DHT22;45916;52.734;6.544;2022-12-18T16:46:23;-0.90;99.90
60039;DHT22;45916;52.734;6.544;2022-12-18T16:48:48;-0.80;99.90
60039;DHT22;45916;52.734;6.544;2022-12-18T16:51:14;-0.90;99.90
60039;DHT22;45916;52.734;6.544;2022-12-18T16:53:40;-0.80;99.90
60039;DHT22;45916;52.734;6.544;2022-12-18T16:56:06;-0.80;99.90
60039;DHT22;45916;52.734;6.544;2022-12-18T16:58:32;-0.80;99.90
60039;DHT22;45916;52.734;6.544;2022-12-18T17:00:59;-0.80;99.90
60039;DHT22;45916;52.734;6.544;2022-12-18T17:03:25;-0.80;99.90
60039;DHT22;45916;52.734;6.544;2022-12-18T17:05:50;-0.80;99.90
60039;DHT22;45916;52.734;6.544;2022-12-18T17:08:16;-0.80;99.90
60039;DHT22;45916;52.734;6.544;2022-12-18T17:10:42;-0.80;99.90
60039;DHT22;45916;52.734;6.544;2022-12-18T17:13:08;-0.80;99.90
60039;DHT22;45916;52.734;6.544;2022-12-18T17:15:34;-0.80;99.90
60039;DHT22;45916;52.734;6.544;2022-12-18T17:18:00;-0.90;99.90
60039;DHT22;45916;52.734;6.544;2022-12-18T17:20:26;-0.80;99.90
60039;DHT22;45916;52.734;6.544;2022-12-18T17:22:52;-0.80;99.90
60039;DHT22;45916;52.734;6.544;2022-12-18T17:25:18;-0.80;99.90
60039;DHT22;45916;52.734;6.544;2022-12-18T17:27:43;-0.80;99.90
60039;DHT22;45916;52.734;6.544;2022-12-18T17:30:09;-0.80;99.90
60039;DHT22;45916;52.734;6.544;2022-12-18T17:32:35;-0.80;99.90
60039;DHT22;45916;52.734;6.544;2022-12-18T17:35:01;-0.80;99.90
60039;DHT22;45916;52.734;6.544;2022-12-18T17:37:27;-0.80;99.90